createdAt,value
2023-01-19T00:03:59.830Z,69.32
2023-01-19T00:09:22.318Z,69.28
2023-01-19T00:14:43.103Z,69.73
2023-01-19T00:20:04.088Z,69.59
2023-01-19T00:25:25.001Z,69.19
2023-01-19T00:30:46.291Z,69.06
2023-01-19T00:36:07.379Z,69.36
2023-01-19T00:41:46.857Z,69.32
2023-01-19T00:47:07.811Z,68.75
2023-01-19T00:52:28.727Z,68.99
2023-01-19T00:57:50.277Z,68.82
2023-01-19T01:03:13.073Z,69.63
2023-01-19T01:08:34.780Z,68.85
2023-01-19T01:13:55.727Z,68.78
2023-01-19T01:19:17.139Z,69.24
2023-01-19T01:24:38.271Z,68.86
2023-01-19T01:29:59.067Z,68.63
2023-01-19T01:35:19.913Z,69.13
2023-01-19T01:40:40.869Z,69.25
2023-01-19T01:46:01.961Z,68.19
2023-01-19T01:51:25.825Z,68.02
2023-01-19T01:56:52.693Z,68.47
2023-01-19T02:02:37.414Z,68.07
2023-01-19T02:08:43.491Z,68.57
2023-01-19T02:14:07.553Z,68.33
2023-01-19T02:19:34.360Z,68.64
2023-01-19T02:24:55.101Z,68.06
2023-01-19T02:30:16.856Z,68.21
2023-01-19T02:35:39.742Z,68.62
2023-01-19T02:41:04.141Z,68.33
2023-01-19T02:46:25.842Z,68.39
2023-01-19T02:51:46.886Z,68.81
2023-01-19T02:57:52.301Z,68.42
2023-01-19T03:03:38.107Z,68.03
2023-01-19T03:09:13.773Z,68.92
2023-01-19T03:14:40.451Z,69.03
2023-01-19T03:20:05.454Z,68.74
2023-01-19T03:25:28.131Z,68.58
2023-01-19T03:30:56.508Z,68.30
2023-01-19T03:36:23.516Z,68.19
2023-01-19T03:41:47.579Z,68.38
2023-01-19T03:47:11.351Z,67.89
2023-01-19T03:52:33.714Z,68.18
2023-01-19T03:57:54.772Z,67.88
2023-01-19T04:03:17.519Z,67.77
2023-01-19T04:08:38.245Z,67.56
2023-01-19T04:13:58.935Z,67.51
2023-01-19T04:19:19.578Z,68.31
2023-01-19T04:24:40.151Z,67.79
2023-01-19T04:30:00.803Z,67.65
2023-01-19T04:35:22.341Z,67.91
2023-01-19T04:40:43.193Z,67.58
2023-01-19T04:46:03.998Z,67.44
2023-01-19T04:51:24.954Z,67.92
2023-01-19T04:56:46.704Z,67.57
2023-01-19T05:02:07.711Z,67.40
2023-01-19T05:07:28.556Z,67.32
2023-01-19T05:12:49.573Z,67.69
2023-01-19T05:18:10.352Z,68.37
2023-01-19T05:23:32.737Z,67.67
2023-01-19T05:28:53.342Z,67.69
2023-01-19T05:34:14.557Z,67.45
2023-01-19T05:39:35.308Z,67.60
2023-01-19T05:44:55.989Z,67.20
2023-01-19T05:50:16.936Z,67.04
2023-01-19T05:55:37.662Z,66.79
2023-01-19T06:01:02.837Z,67.40
2023-01-19T06:06:23.701Z,67.16
2023-01-19T06:11:46.064Z,66.92
2023-01-19T06:17:07.794Z,68.13
2023-01-19T06:22:28.558Z,67.00
2023-01-19T06:27:49.217Z,67.43
2023-01-19T06:33:10.073Z,67.17
2023-01-19T06:38:30.874Z,67.16
2023-01-19T06:43:51.653Z,66.64
2023-01-19T06:49:12.164Z,66.64
2023-01-19T06:54:33.023Z,66.51
2023-01-19T06:59:53.792Z,67.05
2023-01-19T07:05:14.852Z,66.79
2023-01-19T07:11:22.193Z,67.00
2023-01-19T07:16:17.714Z,66.07
2023-01-19T07:21:38.724Z,66.19
2023-01-19T07:26:59.825Z,66.05
2023-01-19T07:32:20.634Z,66.29
2023-01-19T07:37:41.374Z,66.19
2023-01-19T07:43:03.003Z,66.20
2023-01-19T07:48:24.191Z,65.92
2023-01-19T07:53:51.064Z,65.94
2023-01-19T07:59:11.681Z,65.98
2023-01-19T08:04:32.628Z,66.08
2023-01-19T08:09:53.334Z,65.89
2023-01-19T08:15:14.685Z,65.84
2023-01-19T08:20:36.413Z,66.06
2023-01-19T08:25:57.625Z,65.64
2023-01-19T08:31:21.025Z,65.72
2023-01-19T08:36:43.273Z,65.56
2023-01-19T08:42:04.207Z,65.55
2023-01-19T08:47:24.827Z,65.72
2023-01-19T08:52:45.707Z,65.29
2023-01-19T08:58:07.943Z,65.44
2023-01-19T09:03:28.642Z,65.68
2023-01-19T09:08:49.271Z,64.93
2023-01-19T09:14:10.135Z,64.91
2023-01-19T09:19:30.706Z,65.21
2023-01-19T09:24:51.339Z,65.15
2023-01-19T09:30:12.568Z,65.30
2023-01-19T09:35:37.329Z,65.00
2023-01-19T09:40:59.249Z,65.12
2023-01-19T09:46:41.504Z,65.02
2023-01-19T09:52:02.762Z,65.38
2023-01-19T09:57:25.559Z,65.56
2023-01-19T10:03:02.932Z,65.12
2023-01-19T10:08:43.069Z,64.90
2023-01-19T10:14:15.804Z,65.15
2023-01-19T10:19:42.631Z,65.05
2023-01-19T10:25:07.764Z,65.04
2023-01-19T10:30:30.271Z,65.17
2023-01-19T10:35:51.431Z,65.31
2023-01-19T10:41:17.819Z,65.23
2023-01-19T10:46:46.969Z,65.45
2023-01-19T10:52:19.266Z,64.91
2023-01-19T10:57:43.526Z,64.77
2023-01-19T11:03:09.124Z,65.44
2023-01-19T11:08:31.030Z,66.13
2023-01-19T11:14:10.878Z,64.88
2023-01-19T11:19:33.806Z,64.66
2023-01-19T11:25:02.265Z,64.58
2023-01-19T11:30:25.801Z,64.55
2023-01-19T11:35:46.544Z,65.40
2023-01-19T11:41:16.817Z,65.08
2023-01-19T11:46:39.659Z,64.76
2023-01-19T11:52:18.812Z,64.41
2023-01-19T11:57:48.607Z,64.73
2023-01-19T12:03:22.933Z,64.74
2023-01-19T12:08:48.486Z,64.70
2023-01-19T12:14:41.669Z,64.69
2023-01-19T12:20:21.159Z,64.25
2023-01-19T12:25:47.204Z,64.52
2023-01-19T12:31:09.199Z,64.44
2023-01-19T12:36:30.031Z,64.84
2023-01-19T12:42:18.492Z,64.34
2023-01-19T12:47:40.414Z,64.51
2023-01-19T12:53:04.092Z,64.64
2023-01-19T12:58:25.663Z,64.98
2023-01-19T13:04:10.115Z,64.73
2023-01-19T13:09:36.965Z,64.59
2023-01-19T13:15:27.680Z,64.24
2023-01-19T13:21:00.543Z,64.27
2023-01-19T13:26:34.151Z,64.56
2023-01-19T13:32:02.429Z,64.66
2023-01-19T13:37:28.753Z,64.14
2023-01-19T13:42:52.388Z,64.61
2023-01-19T13:48:17.692Z,64.67
2023-01-19T13:53:38.749Z,64.32
2023-01-19T13:59:03.925Z,64.22
2023-01-19T14:04:33.499Z,64.30
2023-01-19T14:10:06.117Z,64.43
2023-01-19T14:15:28.344Z,64.53
2023-01-19T14:21:11.362Z,64.44
2023-01-19T14:26:38.295Z,64.28
2023-01-19T14:32:19.531Z,64.53
2023-01-19T14:37:49.383Z,64.29
2023-01-19T14:43:13.273Z,64.28
2023-01-19T14:48:34.055Z,64.25
2023-01-19T14:53:58.619Z,64.75
2023-01-19T14:59:19.723Z,64.72
2023-01-19T15:04:40.507Z,64.19
2023-01-19T15:10:01.269Z,64.03
2023-01-19T15:15:31.361Z,64.44
2023-01-19T15:20:56.974Z,64.45
2023-01-19T15:26:19.807Z,64.22
2023-01-19T15:31:40.485Z,64.29
2023-01-19T15:37:01.128Z,64.18
2023-01-19T15:42:21.901Z,64.07
2023-01-19T15:47:42.467Z,63.93
2023-01-19T15:53:03.529Z,63.99
2023-01-19T15:58:24.773Z,64.25
2023-01-19T16:03:46.169Z,64.48
2023-01-19T16:09:07.450Z,64.22
2023-01-19T16:14:28.067Z,63.87
2023-01-19T16:19:48.979Z,63.98
2023-01-19T16:25:10.200Z,63.65
2023-01-19T16:30:31.393Z,63.60
2023-01-19T16:35:52.715Z,63.62
2023-01-19T16:41:13.749Z,63.52
2023-01-19T16:46:36.845Z,63.57
2023-01-19T16:51:58.634Z,63.57
2023-01-19T16:57:19.448Z,63.51
2023-01-19T17:02:40.095Z,63.55
2023-01-19T17:08:00.890Z,63.31
2023-01-19T17:13:21.883Z,62.98
2023-01-19T17:18:43.241Z,63.31
2023-01-19T17:24:07.129Z,62.92
2023-01-19T17:29:27.940Z,63.05
2023-01-19T17:34:49.345Z,63.10
2023-01-19T17:40:10.847Z,63.72
2023-01-19T17:45:34.150Z,64.65
2023-01-19T17:50:55.675Z,64.04
2023-01-19T17:56:18.568Z,63.71
2023-01-19T18:01:40.447Z,63.48
2023-01-19T18:07:01.372Z,63.54
2023-01-19T18:12:23.687Z,63.96
2023-01-19T18:17:45.132Z,63.75
2023-01-19T18:23:09.097Z,65.90
2023-01-19T18:28:30.526Z,67.90
2023-01-19T18:33:52.875Z,63.73
2023-01-19T18:39:13.782Z,63.48
2023-01-19T18:44:36.036Z,63.56
2023-01-19T18:49:56.669Z,63.01
2023-01-19T18:55:17.496Z,63.17
2023-01-19T19:00:38.321Z,63.28
2023-01-19T19:06:03.515Z,63.52
2023-01-19T19:11:25.973Z,63.06
2023-01-19T19:16:46.804Z,62.56
2023-01-19T19:22:07.904Z,62.69
2023-01-19T19:27:28.484Z,62.67
2023-01-19T19:32:56.496Z,62.71
2023-01-19T19:38:17.347Z,62.70
2023-01-19T19:43:38.907Z,62.44
2023-01-19T19:49:00.138Z,62.70
2023-01-19T19:54:20.604Z,62.69
2023-01-19T19:59:41.511Z,62.76
2023-01-19T20:05:02.634Z,62.84
2023-01-19T20:10:25.797Z,62.58
2023-01-19T20:15:49.671Z,64.73
2023-01-19T20:21:11.582Z,62.84
2023-01-19T20:26:35.092Z,62.25
2023-01-19T20:31:56.392Z,62.27
2023-01-19T20:37:17.194Z,64.29
2023-01-19T20:42:41.380Z,62.76
2023-01-19T20:48:02.190Z,62.53
2023-01-19T20:53:22.947Z,63.00
2023-01-19T20:58:44.076Z,62.37
2023-01-19T21:04:04.997Z,62.76
2023-01-19T21:09:26.186Z,62.57
2023-01-19T21:14:46.915Z,62.59
2023-01-19T21:20:08.145Z,62.51
2023-01-19T21:25:29.138Z,62.64
2023-01-19T21:30:51.403Z,62.37
2023-01-19T21:36:12.448Z,62.55
2023-01-19T21:41:34.891Z,63.11
2023-01-19T21:46:56.003Z,62.60
2023-01-19T21:52:16.673Z,62.35
2023-01-19T21:57:37.470Z,62.08
2023-01-19T22:03:03.772Z,62.63
2023-01-19T22:08:25.380Z,62.36
2023-01-19T22:13:46.590Z,62.75
2023-01-19T22:19:12.681Z,62.50
2023-01-19T22:24:33.428Z,62.51
2023-01-19T22:29:54.182Z,62.68
2023-01-19T22:35:15.490Z,62.98
2023-01-19T22:40:36.722Z,63.38
2023-01-19T22:45:59.083Z,63.71
2023-01-19T22:51:21.046Z,63.07
2023-01-19T22:56:42.668Z,62.43
2023-01-19T23:02:03.831Z,62.57
2023-01-19T23:07:24.999Z,63.04
2023-01-19T23:12:46.688Z,63.09
2023-01-19T23:18:07.422Z,62.87
2023-01-19T23:23:28.197Z,63.63
2023-01-19T23:28:57.004Z,62.78
2023-01-19T23:34:17.882Z,62.85
2023-01-19T23:39:38.634Z,62.84
2023-01-19T23:44:59.397Z,63.42
2023-01-19T23:50:20.070Z,62.86
2023-01-19T23:55:40.692Z,62.28
